Time;durP1;ratioP1;P1;durP2;ratioP2;P2;SDS_P1;SDS_P2;PMS_P1;PMS_P2;Temp;Humidity;BMP_temperature;BMP_pressure;BME280_temperature;BME280_humidity;BME280_pressure;Samples;Min_cycle;Max_cycle;Signal;HPM_P1;HPM_P2
2023/04/27 00:01:12;;;;;;;7.60;5.18;;;11.60;50.30;;;;;;4963564;28;20042;-87
2023/04/27 00:03:38;;;;;;;7.43;5.43;;;11.60;50.40;;;;;;4968152;28;20042;-86
2023/04/27 00:06:04;;;;;;;6.20;5.55;;;11.50;50.20;;;;;;4962496;28;20059;-86
2023/04/27 00:08:31;;;;;;;7.88;5.00;;;11.50;50.20;;;;;;4962802;28;20092;-86
2023/04/27 00:10:57;;;;;;;9.45;5.55;;;11.50;50.30;;;;;;4967468;28;20075;-86
2023/04/27 00:13:22;;;;;;;6.18;5.50;;;11.40;50.20;;;;;;4957371;28;20494;-85
2023/04/27 00:15:48;;;;;;;7.35;5.40;;;11.40;50.30;;;;;;4942185;28;20463;-85
2023/04/27 00:18:14;;;;;;;7.53;5.45;;;11.40;50.30;;;;;;4941001;28;20035;-86
2023/04/27 00:20:40;;;;;;;9.57;5.55;;;11.30;50.20;;;;;;4941226;28;20032;-86
2023/04/27 00:23:06;;;;;;;6.80;5.07;;;11.40;50.40;;;;;;4949293;28;20042;-86
2023/04/27 00:25:32;;;;;;;9.02;6.25;;;11.30;50.30;;;;;;4943883;28;20039;-84
2023/04/27 00:27:58;;;;;;;7.90;5.20;;;11.30;50.30;;;;;;4943636;28;20288;-84
2023/04/27 00:30:24;;;;;;;8.38;5.80;;;11.30;50.40;;;;;;4945925;28;20031;-87
2023/04/27 00:32:50;;;;;;;6.68;5.43;;;11.20;50.30;;;;;;4937879;28;20034;-85
2023/04/27 00:35:16;;;;;;;6.68;5.68;;;11.20;50.30;;;;;;4944264;28;20031;-86
2023/04/27 00:37:42;;;;;;;7.38;5.95;;;11.20;50.30;;;;;;4946379;28;20062;-84
2023/04/27 00:40:08;;;;;;;8.68;5.13;;;11.20;50.40;;;;;;4944803;28;20082;-85
2023/04/27 00:42:35;;;;;;;5.90;4.82;;;11.10;50.30;;;;;;4941730;28;20518;-85
2023/04/27 00:45:02;;;;;;;8.98;5.57;;;11.10;50.30;;;;;;4940591;28;20042;-86
2023/04/27 00:47:29;;;;;;;6.90;5.22;;;11.10;50.30;;;;;;4945056;28;20067;-86
2023/04/27 00:49:55;;;;;;;6.78;4.70;;;11.10;50.40;;;;;;4943383;28;20026;-84
2023/04/27 00:52:24;;;;;;;7.60;5.38;;;11.10;50.40;;;;;;4943938;28;20048;-87
2023/04/27 00:54:52;;;;;;;7.80;5.43;;;11.00;50.30;;;;;;4944177;28;20436;-88
2023/04/27 00:57:22;;;;;;;6.60;5.20;;;11.00;50.30;;;;;;4944382;28;20050;-89
2023/04/27 00:59:48;;;;;;;7.88;6.07;;;11.00;50.40;;;;;;4941120;28;20087;-89
2023/04/27 01:02:14;;;;;;;8.18;5.68;;;10.90;50.20;;;;;;4944069;28;20376;-88
2023/04/27 01:04:40;;;;;;;9.02;5.60;;;10.90;50.30;;;;;;4946491;28;20035;-89
2023/04/27 01:07:06;;;;;;;6.97;5.15;;;10.90;50.30;;;;;;4940357;28;20530;-89
2023/04/27 01:09:32;;;;;;;10.85;5.57;;;10.90;50.30;;;;;;4946212;28;20063;-89
2023/04/27 01:11:57;;;;;;;10.80;5.75;;;10.80;50.20;;;;;;4942925;28;20043;-89
2023/04/27 01:14:23;;;;;;;8.45;6.10;;;10.80;50.30;;;;;;4946799;28;20038;-88
2023/04/27 01:16:51;;;;;;;7.22;5.43;;;10.80;50.30;;;;;;4945706;28;20110;-89
2023/04/27 01:19:17;;;;;;;7.75;6.10;;;10.80;50.40;;;;;;4943211;28;20049;-88
2023/04/27 01:21:43;;;;;;;8.23;5.50;;;10.70;50.20;;;;;;4943999;28;20118;-88
2023/04/27 01:24:09;;;;;;;7.22;5.20;;;10.70;50.20;;;;;;4937774;28;20043;-88
2023/04/27 01:26:36;;;;;;;9.52;5.03;;;10.70;50.30;;;;;;4935417;28;20081;-87
2023/04/27 01:29:02;;;;;;;6.15;5.22;;;10.60;50.20;;;;;;4946727;28;20403;-89
2023/04/27 01:31:28;;;;;;;7.65;5.55;;;10.60;50.20;;;;;;4933134;28;20413;-88
2023/04/27 01:33:54;;;;;;;5.88;4.80;;;10.60;50.30;;;;;;4943031;28;20828;-87
2023/04/27 01:36:20;;;;;;;8.57;5.88;;;10.60;50.30;;;;;;4940451;28;20028;-86
2023/04/27 01:38:47;;;;;;;8.90;5.68;;;10.50;50.10;;;;;;4939598;28;20512;-83
2023/04/27 01:41:13;;;;;;;7.22;6.15;;;10.50;50.20;;;;;;4949920;28;20190;-84
2023/04/27 01:43:42;;;;;;;6.53;5.18;;;10.50;50.20;;;;;;4943350;28;20345;-81
2023/04/27 01:46:11;;;;;;;7.05;5.38;;;10.50;50.20;;;;;;4946306;28;20576;-85
2023/04/27 01:48:38;;;;;;;6.82;5.15;;;10.40;50.10;;;;;;4949571;28;20802;-86
2023/04/27 01:51:04;;;;;;;6.65;4.85;;;10.40;50.10;;;;;;4952574;28;20035;-86
2023/04/27 01:53:30;;;;;;;7.00;5.43;;;10.40;50.10;;;;;;4953657;28;20126;-88
2023/04/27 01:55:58;;;;;;;6.13;5.38;;;10.40;50.20;;;;;;4954296;28;20189;-86
2023/04/27 01:58:24;;;;;;;8.05;5.32;;;10.40;50.20;;;;;;4943184;28;20059;-86
2023/04/27 02:00:51;;;;;;;5.30;4.70;;;10.40;50.20;;;;;;4939907;28;20043;-89
2023/04/27 02:03:17;;;;;;;7.20;5.35;;;10.40;50.80;;;;;;4953632;28;20057;-88
2023/04/27 02:05:43;;;;;;;5.82;4.72;;;10.30;50.10;;;;;;4941964;28;20137;-88
2023/04/27 02:08:09;;;;;;;11.40;6.15;;;10.30;50.10;;;;;;4945685;28;20169;-88
2023/04/27 02:10:35;;;;;;;6.10;5.05;;;10.30;50.10;;;;;;4946584;29;20138;-88
2023/04/27 02:13:01;;;;;;;5.97;5.32;;;10.30;50.20;;;;;;4944233;28;20046;-89
2023/04/27 02:15:27;;;;;;;7.75;5.85;;;10.30;50.20;;;;;;4944543;28;20036;-88
2023/04/27 02:17:53;;;;;;;7.22;5.45;;;10.30;50.20;;;;;;4965201;28;20114;-89
2023/04/27 02:20:19;;;;;;;8.60;5.95;;;10.30;50.20;;;;;;4950118;29;20059;-83
2023/04/27 02:22:45;;;;;;;7.35;5.32;;;10.20;50.10;;;;;;4942268;28;20066;-87
2023/04/27 02:25:11;;;;;;;7.50;5.07;;;10.30;50.30;;;;;;4950376;28;20035;-87
2023/04/27 02:27:38;;;;;;;6.43;5.05;;;10.30;50.30;;;;;;4950669;28;20039;-86
2023/04/27 02:30:06;;;;;;;9.82;5.25;;;10.20;50.10;;;;;;4949365;28;20110;-85
2023/04/27 02:32:32;;;;;;;6.97;5.38;;;10.20;50.10;;;;;;4954576;28;20035;-86
2023/04/27 02:34:58;;;;;;;9.27;6.25;;;10.20;50.10;;;;;;4949923;28;20074;-86
2023/04/27 02:37:27;;;;;;;7.85;5.65;;;10.20;50.10;;;;;;4951611;28;20043;-87
2023/04/27 02:39:53;;;;;;;6.05;5.38;;;10.20;50.10;;;;;;4956199;28;20031;-87
2023/04/27 02:42:19;;;;;;;6.18;5.57;;;10.20;50.20;;;;;;4951580;28;20050;-88
2023/04/27 02:44:45;;;;;;;7.65;5.20;;;10.20;50.20;;;;;;4961635;28;20042;-88
2023/04/27 02:47:13;;;;;;;9.40;5.45;;;10.10;50.00;;;;;;4954457;28;20391;-88
2023/04/27 02:49:42;;;;;;;9.27;5.72;;;10.10;50.10;;;;;;4945702;28;20063;-87
2023/04/27 02:52:07;;;;;;;7.18;5.38;;;10.10;50.00;;;;;;4943268;28;20570;-87
2023/04/27 02:54:34;;;;;;;8.40;6.40;;;10.10;50.10;;;;;;4959477;28;20038;-87
2023/04/27 02:57:00;;;;;;;7.75;5.93;;;10.10;50.10;;;;;;4954433;28;20035;-87
2023/04/27 02:59:26;;;;;;;8.85;6.68;;;10.00;50.00;;;;;;4941830;29;20114;-88
2023/04/27 03:01:52;;;;;;;6.72;6.03;;;10.00;50.00;;;;;;4953420;28;20039;-88
2023/04/27 03:04:18;;;;;;;8.40;6.72;;;10.00;50.00;;;;;;4951447;28;20454;-87
2023/04/27 03:06:44;;;;;;;9.27;6.53;;;10.00;50.00;;;;;;4949073;28;20498;-89
2023/04/27 03:09:11;;;;;;;7.97;6.03;;;10.00;50.30;;;;;;4953082;28;20046;-87
2023/04/27 03:11:38;;;;;;;9.30;7.45;;;10.00;50.10;;;;;;4951223;28;20047;-88
2023/04/27 03:14:05;;;;;;;8.95;6.30;;;10.00;50.70;;;;;;4943466;28;20403;-88
2023/04/27 03:16:34;;;;;;;9.25;7.00;;;10.00;50.10;;;;;;4949630;28;20050;-88
2023/04/27 03:19:00;;;;;;;9.68;6.63;;;10.00;50.20;;;;;;4949198;29;20042;-88
2023/04/27 03:21:27;;;;;;;7.38;6.68;;;10.00;50.20;;;;;;4948237;28;20054;-86
2023/04/27 03:23:53;;;;;;;9.15;6.43;;;10.00;50.20;;;;;;4941647;29;20043;-87
2023/04/27 03:26:20;;;;;;;8.10;6.25;;;10.00;50.20;;;;;;4950148;28;20504;-87
2023/04/27 03:28:46;;;;;;;9.40;6.72;;;10.00;50.30;;;;;;4944945;28;20134;-86
2023/04/27 03:31:13;;;;;;;8.65;7.25;;;10.00;50.30;;;;;;4952237;28;20483;-85
2023/04/27 03:33:40;;;;;;;10.18;7.15;;;10.00;50.30;;;;;;4956508;28;20043;-86
2023/04/27 03:36:08;;;;;;;9.63;7.13;;;9.90;50.20;;;;;;4947613;28;20035;-85
2023/04/27 03:38:36;;;;;;;11.93;7.35;;;9.90;50.20;;;;;;4947840;28;20066;-88
2023/04/27 03:41:02;;;;;;;9.13;7.20;;;9.90;50.20;;;;;;4947246;28;20050;-86
2023/04/27 03:43:28;;;;;;;7.95;7.13;;;9.90;50.20;;;;;;4949368;28;20079;-86
2023/04/27 03:45:54;;;;;;;10.90;7.25;;;9.90;50.30;;;;;;4952190;28;20093;-87
2023/04/27 03:48:20;;;;;;;9.85;7.50;;;9.90;50.40;;;;;;4949621;28;20583;-85
2023/04/27 03:50:46;;;;;;;9.52;7.70;;;9.90;50.40;;;;;;4951116;28;20039;-86
2023/04/27 03:53:13;;;;;;;10.20;7.28;;;9.90;50.40;;;;;;4947403;28;20105;-85
2023/04/27 03:55:43;;;;;;;8.07;6.90;;;9.90;50.40;;;;;;4950899;28;20055;-86
2023/04/27 03:58:10;;;;;;;9.75;7.55;;;9.90;50.40;;;;;;4949264;28;20038;-84
2023/04/27 04:00:44;;;;;;;9.98;7.30;;;9.90;50.40;;;;;;4943437;28;20031;-84
2023/04/27 04:03:10;;;;;;;8.50;6.95;;;9.90;50.40;;;;;;4950383;28;20454;-85
2023/04/27 04:05:37;;;;;;;10.73;7.40;;;9.90;50.40;;;;;;4949567;28;20043;-84
2023/04/27 04:08:05;;;;;;;8.93;7.18;;;10.00;50.60;;;;;;4949548;28;20035;-86
2023/04/27 04:10:31;;;;;;;7.53;6.68;;;10.00;50.50;;;;;;4947230;28;20046;-84
2023/04/27 04:12:57;;;;;;;8.82;7.10;;;10.00;50.50;;;;;;4941364;28;20387;-85
2023/04/27 04:15:24;;;;;;;9.60;7.45;;;10.10;50.70;;;;;;4945457;28;20039;-86
2023/04/27 04:17:53;;;;;;;9.43;7.55;;;10.10;50.70;;;;;;4951929;28;20039;-85
2023/04/27 04:20:23;;;;;;;9.73;7.30;;;10.10;50.70;;;;;;4932280;29;20046;-83
2023/04/27 04:22:49;;;;;;;9.38;7.60;;;10.10;50.70;;;;;;4952097;28;20043;-85
2023/04/27 04:25:15;;;;;;;9.20;7.63;;;10.20;50.80;;;;;;4946899;28;20058;-85
2023/04/27 04:27:41;;;;;;;9.35;7.18;;;10.10;50.70;;;;;;4949066;28;20502;-86
2023/04/27 04:30:08;;;;;;;12.13;8.57;;;10.20;50.80;;;;;;4948635;28;20122;-86
2023/04/27 04:32:39;;;;;;;10.10;7.35;;;10.20;50.80;;;;;;4951659;28;20510;-85
2023/04/27 04:35:06;;;;;;;9.68;7.57;;;10.20;51.40;;;;;;4945817;28;20035;-86
2023/04/27 04:37:34;;;;;;;11.57;8.32;;;10.20;50.80;;;;;;4948814;28;20066;-84
2023/04/27 04:40:07;;;;;;;12.57;8.68;;;10.30;51.10;;;;;;4943296;28;20433;-85
2023/04/27 04:42:35;;;;;;;10.32;7.63;;;10.30;51.10;;;;;;4941107;28;20035;-85
2023/04/27 04:45:03;;;;;;;11.95;7.95;;;10.30;51.00;;;;;;4949173;28;20050;-85
2023/04/27 04:47:33;;;;;;;10.82;8.02;;;10.30;51.00;;;;;;4946751;28;20079;-86
2023/04/27 04:49:59;;;;;;;11.85;8.88;;;10.30;51.10;;;;;;4942460;28;20039;-84
2023/04/27 04:52:29;;;;;;;13.25;8.48;;;10.40;51.20;;;;;;4947755;28;20035;-86
2023/04/27 04:54:55;;;;;;;12.75;8.02;;;10.40;51.20;;;;;;4945292;28;20047;-86
2023/04/27 04:57:21;;;;;;;14.05;8.15;;;10.40;51.30;;;;;;4947935;28;20308;-83
2023/04/27 04:59:47;;;;;;;11.32;7.82;;;10.40;51.30;;;;;;4948063;28;20409;-85
2023/04/27 05:02:13;;;;;;;13.07;8.95;;;10.40;51.30;;;;;;4943577;28;20039;-85
2023/04/27 05:04:39;;;;;;;11.50;8.88;;;10.50;51.50;;;;;;4940044;28;20427;-86
2023/04/27 05:07:05;;;;;;;11.57;8.68;;;10.50;51.50;;;;;;4941873;28;20391;-85
2023/04/27 05:09:31;;;;;;;13.32;8.93;;;10.50;51.50;;;;;;4942471;28;20038;-84
2023/04/27 05:11:57;;;;;;;9.43;8.52;;;10.50;51.50;;;;;;4941278;28;20089;-85
2023/04/27 05:14:23;;;;;;;10.38;8.77;;;10.60;51.70;;;;;;4933696;28;20031;-84
2023/04/27 05:16:50;;;;;;;12.77;8.40;;;10.60;51.70;;;;;;4941294;28;20098;-86
2023/04/27 05:19:17;;;;;;;12.25;9.52;;;10.60;51.70;;;;;;4935752;28;20215;-85
2023/04/27 05:21:44;;;;;;;10.90;8.52;;;10.60;51.70;;;;;;4940738;28;20459;-86
2023/04/27 05:24:11;;;;;;;11.77;8.85;;;10.70;51.90;;;;;;4940093;28;20207;-86
2023/04/27 05:26:38;;;;;;;9.90;8.68;;;10.70;51.80;;;;;;4957375;28;20043;-86
2023/04/27 05:29:04;;;;;;;12.00;9.07;;;10.70;51.80;;;;;;4962000;28;20019;-88
2023/04/27 05:31:30;;;;;;;10.27;9.13;;;10.70;51.80;;;;;;4965851;28;20043;-87
2023/04/27 05:33:56;;;;;;;12.00;9.50;;;10.80;52.00;;;;;;4963588;28;20031;-89
2023/04/27 05:36:22;;;;;;;10.35;9.25;;;10.80;52.00;;;;;;4970332;28;20039;-85
2023/04/27 05:38:48;;;;;;;10.25;8.85;;;10.80;52.00;;;;;;4966785;28;20091;-86
2023/04/27 05:41:14;;;;;;;10.95;9.25;;;10.80;51.90;;;;;;4961488;28;20043;-84
2023/04/27 05:43:40;;;;;;;11.85;8.50;;;10.80;51.90;;;;;;4936551;28;20039;-83
2023/04/27 05:46:06;;;;;;;14.57;10.57;;;10.80;51.90;;;;;;4940796;28;20129;-91
2023/04/27 05:48:32;;;;;;;12.75;10.23;;;10.80;51.90;;;;;;4937282;28;20143;-91
2023/04/27 05:51:02;;;;;;;14.15;10.13;;;10.90;52.10;;;;;;4940895;28;20630;-83
2023/04/27 05:53:28;;;;;;;14.52;10.27;;;10.90;52.10;;;;;;4935744;28;20480;-83
2023/04/27 05:55:55;;;;;;;15.68;11.63;;;10.90;52.10;;;;;;4940421;28;20110;-86
2023/04/27 05:58:21;;;;;;;14.05;10.18;;;10.90;52.00;;;;;;4946713;28;20174;-86
2023/04/27 06:00:47;;;;;;;13.32;10.82;;;11.00;52.30;;;;;;4937088;28;20135;-85
2023/04/27 06:03:13;;;;;;;13.88;10.38;;;11.00;52.80;;;;;;4940998;28;20136;-84
2023/04/27 06:05:39;;;;;;;14.20;11.07;;;11.10;53.40;;;;;;4938097;28;20039;-88
2023/04/27 06:08:05;;;;;;;16.48;10.60;;;11.10;53.50;;;;;;4945533;28;20047;-89
2023/04/27 06:10:31;;;;;;;16.42;10.60;;;11.20;53.80;;;;;;4943235;28;20076;-81
2023/04/27 06:12:57;;;;;;;16.20;10.38;;;11.20;53.80;;;;;;4941404;28;20656;-81
2023/04/27 06:15:22;;;;;;;15.32;11.15;;;11.20;53.80;;;;;;4941843;28;20035;-81
2023/04/27 06:17:48;;;;;;;18.15;10.70;;;11.20;53.70;;;;;;4943376;28;20051;-85
2023/04/27 06:20:14;;;;;;;14.82;10.98;;;11.30;53.90;;;;;;4942536;28;20198;-87
2023/04/27 06:22:41;;;;;;;14.55;10.48;;;11.30;53.90;;;;;;4943310;28;20439;-86
2023/04/27 06:25:07;;;;;;;12.50;9.90;;;11.30;53.90;;;;;;4942472;28;20074;-85
2023/04/27 06:27:33;;;;;;;14.02;11.30;;;11.30;53.80;;;;;;4940658;28;20320;-89
2023/04/27 06:30:00;;;;;;;15.57;11.45;;;11.30;53.80;;;;;;4937998;29;20213;-88
2023/04/27 06:32:26;;;;;;;12.75;10.30;;;11.40;53.90;;;;;;4941430;28;20035;-81
2023/04/27 06:34:52;;;;;;;16.92;13.07;;;11.40;53.80;;;;;;4942018;28;20245;-83
2023/04/27 06:37:17;;;;;;;13.10;11.52;;;11.40;53.80;;;;;;4941507;28;20210;-83
2023/04/27 06:39:43;;;;;;;16.38;12.30;;;11.40;53.70;;;;;;4933752;28;20375;-82
2023/04/27 06:42:10;;;;;;;18.35;13.18;;;11.50;53.90;;;;;;4939351;28;20109;-84
2023/04/27 06:44:37;;;;;;;16.10;11.25;;;11.50;53.90;;;;;;4950496;28;20046;-83
2023/04/27 06:47:03;;;;;;;19.85;13.13;;;11.50;53.80;;;;;;4937973;28;20333;-84
2023/04/27 06:49:29;;;;;;;16.60;12.13;;;11.60;53.90;;;;;;4938787;28;20034;-83
2023/04/27 06:51:56;;;;;;;15.02;12.50;;;11.60;53.90;;;;;;4935711;28;20565;-84
2023/04/27 06:54:21;;;;;;;16.70;12.60;;;11.60;54.00;;;;;;4942297;28;20097;-84
2023/04/27 06:56:47;;;;;;;15.13;12.48;;;11.70;54.10;;;;;;4940632;28;20035;-83
2023/04/27 06:59:13;;;;;;;16.85;12.15;;;11.80;54.30;;;;;;4934899;28;20042;-83
2023/04/27 07:01:39;;;;;;;16.23;12.13;;;11.90;54.20;;;;;;4939225;28;20043;-82
2023/04/27 07:04:05;;;;;;;17.05;12.40;;;12.00;54.20;;;;;;4936166;28;20043;-87
2023/04/27 07:06:32;;;;;;;17.67;12.48;;;12.20;54.30;;;;;;4938872;28;20135;-83
2023/04/27 07:08:58;;;;;;;17.17;12.07;;;12.30;54.30;;;;;;4935760;28;20072;-81
2023/04/27 07:11:25;;;;;;;16.83;13.30;;;12.40;54.60;;;;;;4935806;28;20345;-81
2023/04/27 07:13:51;;;;;;;15.77;12.52;;;12.50;54.30;;;;;;4939831;28;20264;-81
2023/04/27 07:16:18;;;;;;;16.17;13.45;;;12.70;54.40;;;;;;4940387;28;20038;-90
2023/04/27 07:18:44;;;;;;;18.65;13.25;;;12.90;54.40;;;;;;4939398;28;20114;-79
2023/04/27 07:21:10;;;;;;;18.80;13.15;;;13.00;54.40;;;;;;4941707;28;20054;-79
2023/04/27 07:23:36;;;;;;;17.70;13.15;;;13.00;54.70;;;;;;4939662;28;20035;-80
2023/04/27 07:26:02;;;;;;;18.70;14.38;;;13.10;54.30;;;;;;4939836;28;20450;-78
2023/04/27 07:28:28;;;;;;;20.00;14.10;;;13.20;54.40;;;;;;4941523;28;20061;-79
2023/04/27 07:30:54;;;;;;;16.83;12.27;;;13.30;54.50;;;;;;4942351;28;20035;-80
2023/04/27 07:33:21;;;;;;;15.82;13.20;;;13.40;54.50;;;;;;4932307;28;20138;-81
2023/04/27 07:35:49;;;;;;;23.10;15.35;;;13.40;54.30;;;;;;4933219;28;20069;-81
2023/04/27 07:38:16;;;;;;;16.55;14.05;;;13.50;54.40;;;;;;4926189;28;20027;-81
2023/04/27 07:40:42;;;;;;;20.23;13.30;;;13.60;54.50;;;;;;4938035;28;20299;-80
2023/04/27 07:43:08;;;;;;;21.58;13.65;;;13.60;54.40;;;;;;4935493;28;20355;-82
2023/04/27 07:45:37;;;;;;;18.33;14.02;;;13.70;54.40;;;;;;4933634;28;20366;-81
2023/04/27 07:48:04;;;;;;;18.10;13.75;;;13.80;54.40;;;;;;4935061;28;20059;-80
2023/04/27 07:50:32;;;;;;;20.08;14.38;;;13.90;54.50;;;;;;4938626;28;20042;-82
2023/04/27 07:52:58;;;;;;;15.55;13.07;;;13.90;54.40;;;;;;4932573;28;20112;-82
2023/04/27 07:55:25;;;;;;;15.07;13.52;;;14.00;54.50;;;;;;4941204;28;20134;-83
2023/04/27 07:57:52;;;;;;;16.13;13.52;;;14.00;54.50;;;;;;4941771;28;20028;-82
2023/04/27 08:00:19;;;;;;;17.83;13.20;;;14.10;54.70;;;;;;4933321;28;20031;-82
2023/04/27 08:02:45;;;;;;;18.63;14.10;;;14.10;54.70;;;;;;4937748;28;20341;-83
2023/04/27 08:05:12;;;;;;;15.25;13.13;;;14.10;54.70;;;;;;4941373;28;20031;-80
2023/04/27 08:07:56;;;;;;;16.40;12.77;;;14.10;54.70;;;;;;4937069;28;20043;-81
2023/04/27 08:10:22;;;;;;;16.58;12.88;;;14.00;54.70;;;;;;4937103;28;20035;-83
2023/04/27 08:12:48;;;;;;;18.30;13.38;;;14.00;54.80;;;;;;4930508;28;20118;-81
2023/04/27 08:15:15;;;;;;;16.20;12.13;;;14.10;55.00;;;;;;4940703;28;20028;-83
2023/04/27 08:17:41;;;;;;;16.83;14.00;;;14.30;55.10;;;;;;4939589;28;20117;-81
2023/04/27 08:20:10;;;;;;;15.48;12.27;;;14.40;55.00;;;;;;4937768;28;20035;-81
2023/04/27 08:22:40;;;;;;;16.13;14.20;;;14.50;54.90;;;;;;4932567;28;20039;-85
2023/04/27 08:25:07;;;;;;;15.77;12.88;;;14.60;54.80;;;;;;4934323;28;20035;-80
2023/04/27 08:27:36;;;;;;;17.27;13.25;;;14.80;55.00;;;;;;4938511;28;20043;-80
2023/04/27 08:30:02;;;;;;;16.25;13.30;;;14.80;54.80;;;;;;4937660;28;20596;-80
2023/04/27 08:32:28;;;;;;;13.02;11.55;;;14.90;54.80;;;;;;4936162;28;20279;-80
2023/04/27 08:34:54;;;;;;;13.88;11.77;;;15.00;54.90;;;;;;4935720;28;20146;-81
2023/04/27 08:37:20;;;;;;;15.77;12.82;;;15.00;54.80;;;;;;4938975;28;20043;-81
2023/04/27 08:39:47;;;;;;;15.52;12.18;;;15.00;54.80;;;;;;4937085;28;20237;-80
2023/04/27 08:42:14;;;;;;;14.75;12.63;;;15.10;55.00;;;;;;4938568;28;20868;-80
2023/04/27 08:44:41;;;;;;;14.43;12.43;;;15.10;54.90;;;;;;4937837;28;20039;-81
2023/04/27 08:47:10;;;;;;;15.82;11.38;;;15.20;55.00;;;;;;4940247;28;20046;-82
2023/04/27 08:49:42;;;;;;;14.73;11.93;;;15.20;54.90;;;;;;4939401;28;20027;-86
2023/04/27 08:52:13;;;;;;;20.50;13.13;;;15.30;55.00;;;;;;4936338;28;20032;-81
2023/04/27 08:54:39;;;;;;;16.45;13.98;;;15.30;54.90;;;;;;4935007;28;21115;-78
2023/04/27 08:57:13;;;;;;;13.55;11.55;;;15.30;54.90;;;;;;4936146;28;20127;-79
2023/04/27 08:59:45;;;;;;;15.18;11.77;;;15.30;54.80;;;;;;4935044;28;20111;-79
2023/04/27 09:02:19;;;;;;;14.95;12.90;;;15.40;55.00;;;;;;4938901;28;20078;-79
2023/04/27 09:04:46;;;;;;;18.13;13.18;;;15.50;55.00;;;;;;4939892;28;20079;-80
2023/04/27 09:07:14;;;;;;;16.70;12.88;;;15.50;54.90;;;;;;4935316;28;20130;-80
2023/04/27 09:09:40;;;;;;;15.20;12.55;;;15.60;55.00;;;;;;4941021;28;20457;-80
2023/04/27 09:12:20;;;;;;;14.95;12.10;;;15.70;55.00;;;;;;4939709;28;20035;-79
2023/04/27 09:14:56;;;;;;;17.33;12.68;;;15.70;54.90;;;;;;4935723;28;20086;-82
2023/04/27 09:17:29;;;;;;;14.50;11.82;;;15.80;54.90;;;;;;4939427;28;20356;-84
2023/04/27 09:20:07;;;;;;;;;;;15.80;54.90;;;;;;4933962;28;20051;-82
2023/04/27 09:22:57;;;;;;;15.13;11.75;;;15.90;54.90;;;;;;4933042;28;19911;-79
2023/04/27 09:25:23;;;;;;;15.85;12.55;;;15.90;54.80;;;;;;4940427;28;20130;-79
2023/04/27 09:27:49;;;;;;;15.25;11.98;;;15.90;54.80;;;;;;4933644;28;20039;-79
2023/04/27 09:30:16;;;;;;;14.45;12.18;;;15.90;54.70;;;;;;4936670;28;20066;-80
2023/04/27 09:32:56;;;;;;;14.70;12.10;;;16.00;54.90;;;;;;4937584;28;20503;-80
2023/04/27 09:35:26;;;;;;;13.85;11.25;;;16.00;54.80;;;;;;4936171;28;20313;-82
2023/04/27 09:37:53;;;;;;;15.23;11.38;;;16.10;54.90;;;;;;4940044;28;20387;-83
2023/04/27 09:40:23;;;;;;;12.15;10.85;;;16.20;54.90;;;;;;4939107;28;20031;-80
2023/04/27 09:42:50;;;;;;;13.38;11.18;;;16.30;54.90;;;;;;4933220;28;20130;-78
2023/04/27 09:45:17;;;;;;;12.68;10.85;;;16.40;54.80;;;;;;4935316;28;20058;-78
2023/04/27 09:47:44;;;;;;;12.68;11.35;;;16.50;54.80;;;;;;4934849;28;20075;-79
2023/04/27 09:50:12;;;;;;;13.30;11.35;;;16.60;54.80;;;;;;4935960;28;20203;-78
2023/04/27 09:52:38;;;;;;;12.15;10.43;;;16.70;54.80;;;;;;4940781;28;20042;-78
2023/04/27 09:55:08;;;;;;;13.98;11.98;;;16.90;54.90;;;;;;4935187;28;20036;-78
2023/04/27 09:57:47;;;;;;;15.00;11.65;;;17.10;54.90;;;;;;4937039;28;20035;-79
2023/04/27 10:00:29;;;;;;;13.27;10.10;;;17.20;54.70;;;;;;4934402;28;20248;-80
2023/04/27 10:03:15;;;;;;;11.35;10.25;;;17.50;54.90;;;;;;4947914;28;20035;-79
2023/04/27 10:05:41;;;;;;;12.02;10.82;;;17.70;54.70;;;;;;4939514;28;20137;-79
2023/04/27 10:08:09;;;;;;;13.55;11.90;;;18.00;54.80;;;;;;4936771;28;20519;-79
2023/04/27 10:10:55;;;;;;;13.38;11.23;;;18.20;54.60;;;;;;4929647;28;20097;-80
2023/04/27 10:13:23;;;;;;;11.23;9.95;;;18.50;54.60;;;;;;4935221;28;20466;-79
2023/04/27 10:15:51;;;;;;;12.20;9.80;;;18.60;54.40;;;;;;4937419;28;20244;-79
2023/04/27 10:18:29;;;;;;;11.25;10.15;;;18.80;54.40;;;;;;4940374;28;20031;-79
2023/04/27 10:20:56;;;;;;;13.13;10.50;;;18.90;54.30;;;;;;4938738;28;20405;-79
2023/04/27 10:23:24;;;;;;;14.27;11.13;;;18.90;54.20;;;;;;4935228;28;20094;-79
2023/04/27 10:25:51;;;;;;;11.07;9.80;;;18.90;54.10;;;;;;4939736;28;20051;-79
2023/04/27 10:28:17;;;;;;;12.98;10.60;;;18.80;54.00;;;;;;4938473;28;20295;-79
2023/04/27 10:30:47;;;;;;;14.40;9.95;;;18.70;54.00;;;;;;4937364;28;20043;-80
2023/04/27 10:33:16;;;;;;;12.65;9.60;;;18.70;54.20;;;;;;4949388;28;20042;-79
2023/04/27 10:35:52;;;;;;;10.93;8.88;;;18.70;54.20;;;;;;4960545;28;20039;-80
2023/04/27 10:38:20;;;;;;;12.57;10.30;;;18.70;54.20;;;;;;4960759;28;20109;-78
2023/04/27 10:41:06;;;;;;;11.38;9.05;;;18.60;54.60;;;;;;4964117;28;20028;-80
2023/04/27 10:43:34;;;;;;;12.38;10.00;;;18.60;53.90;;;;;;4963699;28;20054;-79
2023/04/27 10:46:11;;;;;;;11.15;9.32;;;18.60;54.00;;;;;;4970163;28;20033;-80
2023/04/27 10:48:42;;;;;;;11.85;10.50;;;18.50;53.80;;;;;;4963266;28;20054;-80
2023/04/27 10:51:08;;;;;;;10.55;8.85;;;18.40;53.80;;;;;;4956979;28;20035;-80
2023/04/27 10:53:35;;;;;;;12.60;9.40;;;18.40;53.90;;;;;;4948002;28;20043;-82
2023/04/27 10:56:02;;;;;;;11.60;9.90;;;18.20;53.70;;;;;;4946947;28;20035;-81
2023/04/27 10:58:28;;;;;;;11.32;7.00;;;18.10;53.70;;;;;;4949552;28;20537;-80
2023/04/27 11:00:55;;;;;;;9.70;6.53;;;18.10;54.10;;;;;;4951334;28;20357;-78
2023/04/27 11:03:22;;;;;;;10.70;7.50;;;18.10;54.60;;;;;;4948298;28;20046;-80
2023/04/27 11:06:02;;;;;;;10.68;8.07;;;18.10;54.90;;;;;;4945881;28;20035;-78
2023/04/27 11:08:35;;;;;;;10.13;7.22;;;18.00;54.70;;;;;;4939495;28;20047;-79
2023/04/27 11:11:01;;;;;;;10.00;7.95;;;17.90;54.60;;;;;;4939956;29;20372;-80
2023/04/27 11:13:27;;;;;;;9.35;8.45;;;17.90;54.80;;;;;;4929369;28;20056;-80
2023/04/27 11:15:56;;;;;;;9.43;8.25;;;17.80;54.80;;;;;;4943030;28;20035;-80
2023/04/27 11:18:24;;;;;;;10.18;8.10;;;17.70;54.70;;;;;;4938504;28;20835;-79
2023/04/27 11:21:04;;;;;;;9.80;8.73;;;17.60;54.70;;;;;;4934274;28;20046;-81
2023/04/27 11:23:39;;;;;;;10.00;8.38;;;17.60;54.90;;;;;;4940569;28;20046;-85
2023/04/27 11:26:25;;;;;;;9.02;7.68;;;17.50;54.80;;;;;;4944315;28;20083;-81
2023/04/27 11:28:59;;;;;;;12.32;8.00;;;17.40;54.70;;;;;;4940967;28;20499;-80
2023/04/27 11:31:27;;;;;;;11.18;8.20;;;17.40;54.80;;;;;;4942991;28;20181;-80
2023/04/27 11:33:54;;;;;;;10.40;8.23;;;17.40;54.80;;;;;;4939604;28;20077;-81
2023/04/27 11:36:21;;;;;;;13.93;8.80;;;17.30;54.70;;;;;;4938998;28;20024;-81
2023/04/27 11:38:48;;;;;;;10.13;8.35;;;17.30;54.80;;;;;;4940164;28;20522;-82
2023/04/27 11:41:14;;;;;;;14.90;10.45;;;17.20;54.70;;;;;;4937508;28;20447;-80
2023/04/27 11:43:44;;;;;;;14.13;10.00;;;17.10;54.70;;;;;;4929419;28;20570;-82
2023/04/27 11:46:11;;;;;;;9.90;9.00;;;17.10;54.80;;;;;;4932705;28;20047;-82
2023/04/27 11:48:38;;;;;;;13.20;10.05;;;17.00;54.80;;;;;;4938589;28;20319;-82
2023/04/27 11:51:05;;;;;;;10.57;9.07;;;17.00;55.00;;;;;;4939951;28;20129;-80
2023/04/27 11:53:34;;;;;;;12.32;9.65;;;16.90;54.90;;;;;;4942190;28;20212;-79
2023/04/27 11:56:03;;;;;;;13.48;9.63;;;16.80;54.90;;;;;;4942310;28;20039;-79
2023/04/27 11:58:33;;;;;;;13.07;9.30;;;16.80;55.00;;;;;;4937801;28;20043;-78
2023/04/27 12:01:00;;;;;;;10.73;8.98;;;16.80;55.10;;;;;;4939203;28;20023;-79
2023/04/27 12:03:27;;;;;;;11.75;9.70;;;16.80;55.20;;;;;;4935735;28;20399;-80
2023/04/27 12:05:53;;;;;;;12.10;8.85;;;16.80;55.30;;;;;;4939806;28;20043;-80
2023/04/27 12:08:19;;;;;;;9.52;8.52;;;16.80;55.30;;;;;;4941285;28;20031;-79
2023/04/27 12:10:45;;;;;;;12.15;9.15;;;16.80;55.40;;;;;;4935313;28;20065;-82
2023/04/27 12:13:13;;;;;;;11.38;9.80;;;16.80;55.40;;;;;;4954183;28;20451;-81
2023/04/27 12:15:39;;;;;;;11.18;9.13;;;16.80;55.40;;;;;;4940840;28;20108;-81
2023/04/27 12:18:05;;;;;;;13.82;9.55;;;16.80;55.50;;;;;;4939565;28;20059;-80
2023/04/27 12:20:32;;;;;;;12.32;9.50;;;16.80;55.50;;;;;;4940249;28;20472;-82
2023/04/27 12:22:58;;;;;;;10.77;9.23;;;16.80;55.50;;;;;;4926500;28;20095;-80
2023/04/27 12:25:25;;;;;;;10.98;9.32;;;16.90;55.60;;;;;;4937658;28;20376;-81
2023/04/27 12:27:51;;;;;;;14.25;10.38;;;16.90;55.60;;;;;;4933284;29;20041;-80
2023/04/27 12:30:17;;;;;;;11.68;8.77;;;17.00;55.70;;;;;;4930124;28;20034;-79
2023/04/27 12:32:43;;;;;;;11.93;9.90;;;17.00;55.70;;;;;;4937281;28;20035;-79
2023/04/27 12:35:09;;;;;;;12.02;9.38;;;17.00;55.70;;;;;;4927072;28;20032;-79
2023/04/27 12:37:35;;;;;;;9.98;8.95;;;17.00;55.70;;;;;;4925921;28;20039;-78
2023/04/27 12:40:08;;;;;;;13.45;10.13;;;17.00;55.70;;;;;;4937154;28;20039;-79